createdAt,value
2023-04-14T00:00:08.845Z,54.93
2023-04-14T00:02:11.598Z,54.70
2023-04-14T00:04:16.764Z,54.46
2023-04-14T00:06:19.720Z,54.48
2023-04-14T00:08:22.624Z,54.67
2023-04-14T00:10:25.970Z,54.51
2023-04-14T00:12:28.715Z,54.64
2023-04-14T00:14:31.620Z,54.86
2023-04-14T00:16:35.318Z,54.66
2023-04-14T00:18:38.553Z,53.65
2023-04-14T00:20:41.426Z,54.16
2023-04-14T00:22:44.133Z,54.66
2023-04-14T00:24:47.011Z,54.35
2023-04-14T00:26:50.367Z,54.24
2023-04-14T00:28:53.020Z,53.78
2023-04-14T00:30:55.889Z,53.87
2023-04-14T00:32:58.776Z,53.67
2023-04-14T00:35:03.613Z,53.67
2023-04-14T00:37:06.417Z,54.35
2023-04-14T00:39:08.957Z,53.69
2023-04-14T00:41:11.592Z,52.89
2023-04-14T00:43:18.935Z,53.25
2023-04-14T00:45:21.590Z,53.36
2023-04-14T00:47:24.390Z,53.74
2023-04-14T00:49:27.314Z,53.13
2023-04-14T00:51:30.049Z,53.37
2023-04-14T00:53:33.349Z,53.10
2023-04-14T00:55:36.506Z,53.29
2023-04-14T00:57:40.558Z,52.94
2023-04-14T00:59:43.249Z,52.56
2023-04-14T01:01:46.390Z,52.16
2023-04-14T01:03:49.287Z,52.72
2023-04-14T01:05:52.173Z,52.53
2023-04-14T01:07:55.121Z,52.84
2023-04-14T01:09:58.405Z,52.45
2023-04-14T01:12:26.751Z,51.99
2023-04-14T01:14:42.725Z,51.99
2023-04-14T01:16:49.892Z,51.80
2023-04-14T01:18:56.433Z,51.94
2023-04-14T01:21:08.321Z,51.65
2023-04-14T01:23:21.587Z,51.98
2023-04-14T01:25:36.910Z,51.90
2023-04-14T01:28:12.871Z,52.31
2023-04-14T01:30:52.866Z,52.07
2023-04-14T01:33:01.622Z,51.54
2023-04-14T01:35:13.350Z,51.77
2023-04-14T01:37:30.410Z,51.72
2023-04-14T01:39:41.435Z,51.58
2023-04-14T01:41:48.918Z,51.68
2023-04-14T01:43:55.947Z,51.25
2023-04-14T01:46:05.342Z,50.97
2023-04-14T01:48:09.336Z,51.97
2023-04-14T01:50:13.703Z,51.63
2023-04-14T01:52:17.716Z,52.05
2023-04-14T01:54:21.997Z,52.35
2023-04-14T01:56:26.184Z,51.74
2023-04-14T01:58:31.445Z,52.36
2023-04-14T02:00:36.688Z,52.02
2023-04-14T02:02:41.857Z,52.55
2023-04-14T02:04:46.052Z,52.71
2023-04-14T02:06:51.569Z,52.72
2023-04-14T02:08:54.827Z,52.99
2023-04-14T02:10:59.704Z,52.64
2023-04-14T02:13:05.190Z,53.03
2023-04-14T02:15:13.841Z,53.14
2023-04-14T02:17:18.879Z,52.96
2023-04-14T02:19:23.210Z,53.23
2023-04-14T02:21:26.740Z,52.82
2023-04-14T02:23:29.573Z,52.69
2023-04-14T02:25:35.396Z,52.56
2023-04-14T02:27:56.537Z,52.82
2023-04-14T02:30:03.196Z,52.57
2023-04-14T02:32:11.830Z,52.57
2023-04-14T02:34:16.103Z,52.73
2023-04-14T02:36:22.907Z,52.92
2023-04-14T02:38:36.917Z,53.62
2023-04-14T02:40:42.312Z,53.52
2023-04-14T02:42:48.358Z,52.97
2023-04-14T02:45:02.192Z,53.37
2023-04-14T02:47:09.772Z,53.44
2023-04-14T02:49:16.755Z,53.44
2023-04-14T02:51:21.471Z,53.61
2023-04-14T02:53:25.786Z,53.44
2023-04-14T02:55:31.903Z,53.57
2023-04-14T02:57:35.779Z,54.00
2023-04-14T02:59:40.521Z,53.95
2023-04-14T03:01:45.731Z,53.08
2023-04-14T03:03:50.435Z,52.92
2023-04-14T03:05:53.561Z,53.40
2023-04-14T03:07:56.865Z,53.68
2023-04-14T03:10:00.906Z,53.81
2023-04-14T03:12:05.003Z,53.66
2023-04-14T03:14:07.971Z,53.73
2023-04-14T03:16:11.457Z,53.84
2023-04-14T03:18:15.094Z,53.70
2023-04-14T03:20:20.362Z,54.07
2023-04-14T03:22:26.957Z,53.84
2023-04-14T03:24:32.930Z,53.25
2023-04-14T03:26:37.921Z,53.59
2023-04-14T03:28:43.031Z,53.45
2023-04-14T03:30:49.798Z,53.13
2023-04-14T03:32:54.547Z,53.06
2023-04-14T03:34:59.417Z,53.08
2023-04-14T03:37:04.580Z,53.17
2023-04-14T03:39:15.790Z,52.65
2023-04-14T03:41:31.300Z,53.06
2023-04-14T03:43:44.050Z,53.37
2023-04-14T03:45:50.336Z,53.14
2023-04-14T03:47:58.070Z,53.46
2023-04-14T03:50:05.128Z,53.79
2023-04-14T03:52:11.128Z,53.26
2023-04-14T03:54:16.874Z,52.70
2023-04-14T03:56:20.357Z,53.00
2023-04-14T03:58:25.044Z,52.54
2023-04-14T04:00:29.366Z,52.72
2023-04-14T04:02:32.909Z,53.31
2023-04-14T04:04:37.016Z,53.24
2023-04-14T04:06:41.109Z,53.24
2023-04-14T04:08:47.484Z,52.83
2023-04-14T04:10:51.702Z,52.97
2023-04-14T04:12:58.282Z,52.79
2023-04-14T04:15:01.535Z,52.67
2023-04-14T04:17:08.591Z,52.72
2023-04-14T04:19:14.449Z,53.34
2023-04-14T04:21:18.840Z,53.50
2023-04-14T04:23:23.039Z,53.84
2023-04-14T04:25:25.879Z,53.05
2023-04-14T04:27:29.407Z,51.93
2023-04-14T04:29:32.435Z,52.87
2023-04-14T04:31:36.051Z,52.56
2023-04-14T04:33:39.197Z,51.89
2023-04-14T04:35:42.753Z,51.92
2023-04-14T04:37:46.454Z,51.80
2023-04-14T04:39:49.374Z,52.17
2023-04-14T04:42:01.623Z,51.59
2023-04-14T04:44:04.367Z,51.82
2023-04-14T04:46:26.003Z,50.36
2023-04-14T04:48:28.673Z,50.32
2023-04-14T04:50:31.323Z,50.53
2023-04-14T04:52:33.958Z,49.98
2023-04-14T04:54:36.609Z,49.58
2023-04-14T04:56:39.312Z,49.89
2023-04-14T04:58:41.955Z,49.96
2023-04-14T05:00:44.542Z,49.74
2023-04-14T05:02:47.341Z,49.62
2023-04-14T05:04:50.129Z,49.64
2023-04-14T05:06:52.922Z,49.33
2023-04-14T05:08:56.234Z,49.02
2023-04-14T05:10:58.821Z,49.00
2023-04-14T05:13:01.593Z,49.32
2023-04-14T05:15:04.664Z,49.31
2023-04-14T05:17:07.480Z,49.81
2023-04-14T05:19:10.198Z,49.52
2023-04-14T05:21:14.361Z,49.26
2023-04-14T05:23:17.191Z,48.95
2023-04-14T05:25:20.029Z,47.99
2023-04-14T05:27:22.629Z,48.05
2023-04-14T05:29:25.517Z,47.84
2023-04-14T05:31:28.231Z,47.21
2023-04-14T05:33:31.227Z,47.32
2023-04-14T05:35:33.835Z,47.17
2023-04-14T05:37:36.520Z,47.39
2023-04-14T05:39:39.202Z,47.53
2023-04-14T05:41:41.897Z,46.95
2023-04-14T05:43:44.536Z,47.73
2023-04-14T05:45:49.862Z,47.29
2023-04-14T05:47:52.518Z,47.86
2023-04-14T05:49:55.265Z,47.06
2023-04-14T05:51:57.860Z,47.24
2023-04-14T05:54:00.767Z,45.64
2023-04-14T05:56:03.875Z,45.58
2023-04-14T05:58:06.450Z,45.68
2023-04-14T06:00:10.789Z,45.72
2023-04-14T06:02:13.675Z,46.08
2023-04-14T06:04:16.598Z,45.06
2023-04-14T06:06:22.216Z,45.19
2023-04-14T06:08:25.571Z,45.20
2023-04-14T06:10:28.176Z,45.56
2023-04-14T06:12:30.815Z,45.04
2023-04-14T06:14:33.513Z,44.81
2023-04-14T06:16:36.218Z,43.97
2023-04-14T06:18:38.782Z,43.93
2023-04-14T06:20:41.544Z,43.55
2023-04-14T06:22:44.185Z,43.60
2023-04-14T06:24:47.015Z,43.31
2023-04-14T06:26:49.658Z,42.83
2023-04-14T06:28:52.370Z,42.75
2023-04-14T06:30:55.134Z,42.45
2023-04-14T06:32:57.997Z,42.03
2023-04-14T06:35:01.209Z,42.13
2023-04-14T06:37:05.947Z,41.81
2023-04-14T06:39:08.603Z,41.22
2023-04-14T06:41:11.575Z,40.76
2023-04-14T06:43:15.252Z,40.38
2023-04-14T06:45:17.860Z,40.14
2023-04-14T06:47:24.680Z,40.56
2023-04-14T06:49:27.438Z,41.16
2023-04-14T06:51:30.987Z,40.30
2023-04-14T06:53:33.607Z,39.04
2023-04-14T06:55:36.521Z,38.41
2023-04-14T06:57:39.144Z,38.41
2023-04-14T06:59:42.137Z,38.30
2023-04-14T07:01:44.970Z,38.21
2023-04-14T07:03:47.801Z,37.11
2023-04-14T07:05:50.878Z,37.11
2023-04-14T07:07:53.530Z,36.87
2023-04-14T07:09:56.199Z,37.25
2023-04-14T07:11:59.356Z,36.05
2023-04-14T07:14:02.469Z,35.54
2023-04-14T07:16:09.024Z,36.41
2023-04-14T07:18:11.924Z,35.92
2023-04-14T07:20:14.576Z,35.42
2023-04-14T07:22:17.821Z,35.56
2023-04-14T07:24:20.600Z,34.48
2023-04-14T07:26:23.166Z,34.99
2023-04-14T07:28:27.272Z,34.43
2023-04-14T07:30:30.174Z,34.10
2023-04-14T07:32:33.297Z,35.04
2023-04-14T07:34:36.236Z,33.83
2023-04-14T07:36:40.041Z,34.27
2023-04-14T07:38:44.023Z,33.38
2023-04-14T07:40:46.932Z,33.43
2023-04-14T07:42:49.761Z,33.62
2023-04-14T07:44:52.404Z,32.69
2023-04-14T07:46:55.228Z,32.41
2023-04-14T07:48:58.004Z,32.13
2023-04-14T07:51:01.183Z,32.45
2023-04-14T07:53:04.125Z,32.03
2023-04-14T07:55:07.110Z,31.56
2023-04-14T07:57:11.024Z,32.66
2023-04-14T07:59:13.659Z,31.54
2023-04-14T08:01:17.319Z,31.42
2023-04-14T08:03:20.315Z,30.51
2023-04-14T08:05:23.187Z,31.26
2023-04-14T08:07:28.869Z,30.92
2023-04-14T08:09:31.506Z,30.63
2023-04-14T08:11:34.209Z,30.30
2023-04-14T08:13:36.897Z,29.63
2023-04-14T08:15:39.562Z,29.78
2023-04-14T08:17:42.545Z,30.55
2023-04-14T08:19:45.348Z,29.81
2023-04-14T08:21:48.019Z,29.26
2023-04-14T08:23:50.721Z,29.59
2023-04-14T08:25:53.447Z,29.94
2023-04-14T08:27:56.247Z,30.11
2023-04-14T08:29:58.847Z,29.48
2023-04-14T08:32:01.913Z,29.73
2023-04-14T08:34:04.678Z,29.46
2023-04-14T08:36:07.693Z,29.53
2023-04-14T08:38:10.554Z,28.92
2023-04-14T08:40:16.037Z,29.29
2023-04-14T08:42:21.734Z,29.38
2023-04-14T08:44:24.462Z,29.12
2023-04-14T08:46:28.458Z,29.50
2023-04-14T08:48:32.323Z,29.42
2023-04-14T08:50:43.306Z,28.50
2023-04-14T08:52:47.869Z,29.70
2023-04-14T08:54:53.833Z,29.20
2023-04-14T08:56:59.663Z,29.46
2023-04-14T08:59:02.745Z,30.24
2023-04-14T09:01:05.590Z,29.67
2023-04-14T09:03:09.603Z,29.26
2023-04-14T09:05:13.858Z,30.01
2023-04-14T09:07:16.948Z,29.06
2023-04-14T09:09:19.712Z,28.98
2023-04-14T09:11:23.461Z,29.19
2023-04-14T09:13:28.678Z,29.71
2023-04-14T09:15:31.578Z,29.11
2023-04-14T09:17:36.794Z,29.47
2023-04-14T09:20:35.322Z,28.88
2023-04-14T09:22:02.703Z,29.09
2023-04-14T09:24:06.366Z,29.11
2023-04-14T09:26:09.467Z,29.33
2023-04-14T09:28:12.597Z,28.00
2023-04-14T09:30:17.848Z,28.00
2023-04-14T09:32:22.390Z,28.70
2023-04-14T09:34:25.484Z,29.08
2023-04-14T09:36:29.328Z,28.79
2023-04-14T09:38:39.578Z,28.53
2023-04-14T09:40:47.667Z,28.83
2023-04-14T09:42:50.611Z,28.62
2023-04-14T09:44:55.139Z,28.27
2023-04-14T09:47:06.186Z,28.04
2023-04-14T09:49:09.029Z,28.34
2023-04-14T09:51:11.897Z,28.21
2023-04-14T09:53:14.538Z,28.95
2023-04-14T09:55:17.507Z,28.64
2023-04-14T09:57:26.911Z,28.14
2023-04-14T09:59:32.848Z,27.79
2023-04-14T10:01:36.967Z,27.91
2023-04-14T10:03:40.937Z,27.66
2023-04-14T10:05:48.105Z,27.37
2023-04-14T10:07:51.389Z,27.96
2023-04-14T10:09:54.145Z,26.70
2023-04-14T10:12:18.343Z,27.12
2023-04-14T10:14:21.097Z,27.28
2023-04-14T10:16:24.746Z,27.37
2023-04-14T10:18:27.572Z,27.39
2023-04-14T10:20:31.314Z,26.51
2023-04-14T10:22:34.088Z,26.86
2023-04-14T10:24:37.481Z,27.23
2023-04-14T10:26:42.741Z,26.70
2023-04-14T10:28:48.275Z,26.29
2023-04-14T10:30:56.658Z,26.50
2023-04-14T10:32:59.594Z,26.08
2023-04-14T10:35:05.915Z,26.70
2023-04-14T10:37:16.235Z,25.78
2023-04-14T10:39:24.659Z,26.03
2023-04-14T10:41:27.951Z,25.69
2023-04-14T10:43:30.785Z,24.96
2023-04-14T10:45:33.458Z,24.97
2023-04-14T10:47:40.703Z,25.10
2023-04-14T10:49:44.618Z,25.10
2023-04-14T10:51:49.803Z,24.52
2023-04-14T10:53:55.859Z,24.55
2023-04-14T10:56:03.247Z,24.09
2023-04-14T10:58:06.752Z,24.50
2023-04-14T11:00:22.298Z,24.53
2023-04-14T11:02:28.551Z,24.64
2023-04-14T11:04:32.113Z,24.39
2023-04-14T11:07:00.257Z,24.66
2023-04-14T11:09:21.886Z,24.28
2023-04-14T11:11:29.510Z,24.44
2023-04-14T11:13:34.949Z,23.85
2023-04-14T11:16:02.549Z,23.66
2023-04-14T11:18:16.237Z,24.11
2023-04-14T11:20:21.388Z,23.64
2023-04-14T11:22:46.012Z,23.92
2023-04-14T11:24:49.035Z,24.05
2023-04-14T11:26:53.751Z,24.02
2023-04-14T11:28:56.947Z,24.46
2023-04-14T11:31:01.459Z,23.79
2023-04-14T11:33:04.281Z,23.19
2023-04-14T11:35:10.174Z,22.96
2023-04-14T11:37:12.862Z,22.79
2023-04-14T11:39:16.452Z,23.02
2023-04-14T11:41:20.563Z,22.77
2023-04-14T11:43:24.230Z,22.40
2023-04-14T11:45:31.156Z,22.09
2023-04-14T11:47:33.966Z,22.03
2023-04-14T11:49:37.388Z,22.47
2023-04-14T11:51:40.531Z,22.70
2023-04-14T11:53:43.564Z,21.92
2023-04-14T11:55:50.960Z,21.27
2023-04-14T11:57:55.307Z,21.44
2023-04-14T11:59:58.110Z,21.68
2023-04-14T12:02:04.048Z,21.89
2023-04-14T12:04:07.988Z,22.32
2023-04-14T12:06:10.938Z,21.71
2023-04-14T12:08:14.032Z,21.38
2023-04-14T12:10:16.954Z,20.81
2023-04-14T12:12:20.391Z,20.75
2023-04-14T12:14:23.233Z,20.62
2023-04-14T12:16:26.874Z,21.23
2023-04-14T12:18:29.717Z,20.74
2023-04-14T12:20:48.780Z,20.82
2023-04-14T12:22:52.027Z,20.68
2023-04-14T12:24:56.452Z,20.61
2023-04-14T12:26:59.080Z,20.28
2023-04-14T12:29:02.530Z,20.59
2023-04-14T12:31:05.539Z,20.16
2023-04-14T12:33:12.606Z,20.44
2023-04-14T12:35:15.522Z,19.87
2023-04-14T12:37:23.856Z,19.90
2023-04-14T12:39:27.774Z,19.90
2023-04-14T12:41:30.553Z,20.49
2023-04-14T12:43:35.713Z,20.15
2023-04-14T12:45:49.007Z,20.53
2023-04-14T12:47:54.125Z,20.52
2023-04-14T12:49:58.731Z,20.18
2023-04-14T12:52:01.489Z,19.45
2023-04-14T12:54:08.472Z,20.06
2023-04-14T12:56:22.530Z,19.87
2023-04-14T12:58:29.904Z,20.25
2023-04-14T13:00:32.608Z,19.66
2023-04-14T13:02:36.707Z,19.32
2023-04-14T13:04:40.006Z,19.29
2023-04-14T13:06:42.826Z,19.28
2023-04-14T13:08:49.118Z,19.51
2023-04-14T13:10:51.766Z,19.05
2023-04-14T13:12:54.364Z,18.75
2023-04-14T13:14:57.367Z,18.61
2023-04-14T13:17:00.132Z,18.75
2023-04-14T13:19:03.147Z,18.87
2023-04-14T13:21:07.039Z,18.81
2023-04-14T13:23:09.730Z,18.74
2023-04-14T13:25:12.419Z,18.71
2023-04-14T13:27:19.382Z,18.74
2023-04-14T13:29:22.115Z,18.83
2023-04-14T13:31:24.858Z,18.98
2023-04-14T13:33:27.952Z,18.85
2023-04-14T13:35:30.797Z,18.65
2023-04-14T13:37:33.454Z,19.09
2023-04-14T13:39:36.166Z,18.51
2023-04-14T13:41:38.841Z,17.90
2023-04-14T13:43:41.851Z,18.07
2023-04-14T13:45:44.857Z,18.25
2023-04-14T13:47:49.262Z,18.06
2023-04-14T13:49:51.981Z,18.32
2023-04-14T13:51:54.748Z,18.45
2023-04-14T13:53:57.876Z,18.95
2023-04-14T13:56:01.259Z,18.92
2023-04-14T13:58:03.953Z,18.55
2023-04-14T14:00:09.600Z,18.69
2023-04-14T14:02:12.589Z,18.32
2023-04-14T14:04:15.633Z,18.35
2023-04-14T14:06:19.355Z,18.78
2023-04-14T14:08:22.434Z,18.33
2023-04-14T14:10:25.115Z,18.52
2023-04-14T14:12:27.836Z,18.35
2023-04-14T14:14:30.516Z,18.09
2023-04-14T14:16:37.249Z,18.21
2023-04-14T14:18:41.852Z,18.28
2023-04-14T14:20:44.639Z,18.19
2023-04-14T14:22:48.080Z,18.19
2023-04-14T14:24:50.728Z,18.43
2023-04-14T14:26:53.375Z,17.85
2023-04-14T14:28:56.228Z,17.96
2023-04-14T14:30:58.912Z,17.93
2023-04-14T14:33:01.613Z,18.37
2023-04-14T14:35:04.795Z,18.13
2023-04-14T14:37:07.473Z,17.89
2023-04-14T14:39:10.213Z,18.22
2023-04-14T14:41:12.996Z,18.34
2023-04-14T14:43:16.217Z,18.47
2023-04-14T14:45:26.244Z,18.13
2023-04-14T14:47:33.893Z,18.71
2023-04-14T14:49:39.369Z,18.55
2023-04-14T14:51:48.468Z,18.61
2023-04-14T14:53:57.157Z,18.78
2023-04-14T14:56:04.345Z,18.96
2023-04-14T14:58:08.644Z,19.36
2023-04-14T15:00:11.800Z,19.63
2023-04-14T15:02:14.920Z,19.48
2023-04-14T15:04:17.700Z,19.58
2023-04-14T15:06:20.970Z,19.67
2023-04-14T15:08:24.292Z,19.56
2023-04-14T15:10:27.430Z,19.64
2023-04-14T15:12:30.524Z,19.98
2023-04-14T15:14:33.296Z,20.83
2023-04-14T15:16:36.103Z,20.13
2023-04-14T15:18:38.697Z,20.42
2023-04-14T15:20:42.897Z,20.90
2023-04-14T15:22:45.715Z,21.35
2023-04-14T15:24:48.909Z,21.78
2023-04-14T15:26:52.165Z,21.99
2023-04-14T15:28:55.719Z,22.01
2023-04-14T15:31:01.478Z,21.63
2023-04-14T15:33:04.300Z,22.34
2023-04-14T15:35:07.264Z,22.38
2023-04-14T15:37:09.927Z,22.07
2023-04-14T15:39:12.571Z,22.86
2023-04-14T15:41:15.279Z,22.69
2023-04-14T15:43:17.910Z,22.46
2023-04-14T15:45:21.753Z,22.72
2023-04-14T15:47:24.625Z,22.56
2023-04-14T15:49:27.352Z,23.01
2023-04-14T15:51:30.886Z,22.71
2023-04-14T15:53:33.652Z,23.44
2023-04-14T15:55:36.952Z,23.12
2023-04-14T15:57:39.599Z,23.57
2023-04-14T15:59:42.406Z,23.18
2023-04-14T16:01:45.256Z,23.21
2023-04-14T16:03:50.409Z,23.44
2023-04-14T16:06:02.673Z,24.01
2023-04-14T16:08:06.239Z,23.82
2023-04-14T16:10:09.356Z,24.38
2023-04-14T16:12:12.230Z,23.71
2023-04-14T16:14:14.958Z,23.83
2023-04-14T16:16:18.019Z,24.01
2023-04-14T16:18:20.770Z,24.43
2023-04-14T16:20:23.950Z,24.23
2023-04-14T16:22:27.914Z,24.59
2023-04-14T16:24:30.933Z,24.51
2023-04-14T16:26:33.818Z,24.62
2023-04-14T16:28:36.570Z,24.71
2023-04-14T16:30:39.348Z,25.16
2023-04-14T16:32:42.287Z,24.96
2023-04-14T16:34:45.020Z,25.26
2023-04-14T16:36:48.188Z,25.80
2023-04-14T16:38:51.151Z,25.73
2023-04-14T16:40:57.902Z,25.76
2023-04-14T16:43:00.753Z,25.78
2023-04-14T16:45:03.536Z,26.42
2023-04-14T16:47:06.525Z,25.61
2023-04-14T16:49:09.180Z,25.90
2023-04-14T16:51:11.960Z,26.13
2023-04-14T16:53:14.706Z,26.15
2023-04-14T16:55:17.580Z,26.55
2023-04-14T16:57:20.682Z,26.08
2023-04-14T16:59:23.396Z,26.67
2023-04-14T17:01:27.018Z,26.99
2023-04-14T17:03:30.063Z,26.83
2023-04-14T17:05:33.065Z,27.41
2023-04-14T17:07:35.858Z,27.05
2023-04-14T17:09:38.715Z,26.61
2023-04-14T17:11:42.697Z,27.13
2023-04-14T17:13:45.641Z,27.23
2023-04-14T17:15:58.800Z,27.22
2023-04-14T17:18:11.401Z,27.73
2023-04-14T17:20:15.611Z,27.83
2023-04-14T17:22:18.623Z,27.37
2023-04-14T17:24:21.415Z,27.64
2023-04-14T17:26:25.008Z,27.44
2023-04-14T17:28:27.904Z,28.00
2023-04-14T17:30:32.595Z,28.46
2023-04-14T17:32:35.376Z,27.98
2023-04-14T17:34:38.290Z,28.21
2023-04-14T17:36:41.079Z,28.11
2023-04-14T17:38:44.819Z,28.30
2023-04-14T17:40:47.601Z,28.46
2023-04-14T17:42:50.475Z,29.44
2023-04-14T17:44:53.559Z,28.83
2023-04-14T17:47:01.089Z,28.95
2023-04-14T17:49:04.213Z,28.81
2023-04-14T17:51:07.529Z,29.07
2023-04-14T17:53:10.508Z,29.17
2023-04-14T17:55:14.077Z,29.54
2023-04-14T17:57:17.421Z,29.72
2023-04-14T17:59:20.979Z,29.96
2023-04-14T18:01:24.298Z,29.57
2023-04-14T18:03:27.690Z,29.24
2023-04-14T18:05:30.536Z,29.44
2023-04-14T18:07:33.687Z,29.45
2023-04-14T18:09:36.437Z,29.34
2023-04-14T18:11:39.163Z,29.25
2023-04-14T18:13:41.890Z,29.14
2023-04-14T18:15:44.765Z,28.91
2023-04-14T18:17:48.030Z,28.90
2023-04-14T18:19:50.877Z,29.44
2023-04-14T18:21:53.599Z,29.77
2023-04-14T18:28:08.545Z,29.82
2023-04-14T18:30:11.518Z,29.75
2023-04-14T18:32:14.741Z,29.85
2023-04-14T18:34:17.787Z,29.69
2023-04-14T18:36:20.594Z,29.91
2023-04-14T18:38:24.530Z,30.15
2023-04-14T18:40:27.781Z,30.13
2023-04-14T18:42:31.720Z,29.85
2023-04-14T18:44:34.617Z,30.03
2023-04-14T18:46:38.144Z,29.50
2023-04-14T18:48:41.355Z,29.52
2023-04-14T18:50:44.972Z,30.18
2023-04-14T18:52:47.747Z,30.12
2023-04-14T18:54:50.598Z,30.13
2023-04-14T18:56:53.385Z,30.31
2023-04-14T18:58:57.729Z,31.00
2023-04-14T19:01:00.418Z,30.50
2023-04-14T19:03:04.772Z,30.58
2023-04-14T19:05:08.400Z,30.34
2023-04-14T19:07:11.603Z,30.51
2023-04-14T19:09:14.566Z,30.61
2023-04-14T19:11:17.261Z,30.80
2023-04-14T19:13:19.984Z,30.79
2023-04-14T19:15:22.773Z,30.83
2023-04-14T19:17:25.479Z,31.06
2023-04-14T19:19:28.132Z,30.92
2023-04-14T19:21:31.249Z,30.75
2023-04-14T19:23:34.302Z,30.85
2023-04-14T19:25:38.859Z,30.77
2023-04-14T19:27:43.313Z,30.73
2023-04-14T19:29:46.349Z,31.44
2023-04-14T19:31:49.100Z,31.20
2023-04-14T19:33:51.870Z,31.42
2023-04-14T19:35:54.541Z,31.78
2023-04-14T19:37:58.095Z,31.61
2023-04-14T19:40:01.703Z,31.85
2023-04-14T19:42:05.753Z,31.96
2023-04-14T19:44:08.713Z,32.38
2023-04-14T19:46:13.408Z,32.29
2023-04-14T19:48:23.524Z,32.63
2023-04-14T19:50:26.911Z,32.41
2023-04-14T19:52:29.993Z,32.30
2023-04-14T19:54:32.730Z,32.44
2023-04-14T19:56:35.685Z,32.63
2023-04-14T19:58:38.401Z,32.71
2023-04-14T20:00:41.221Z,32.86
2023-04-14T20:02:45.151Z,32.36
2023-04-14T20:04:48.522Z,33.08
2023-04-14T20:06:51.297Z,32.75
2023-04-14T20:08:54.103Z,33.11
2023-04-14T20:10:57.026Z,32.87
2023-04-14T20:12:59.733Z,32.82
2023-04-14T20:15:03.515Z,32.77
2023-04-14T20:17:06.621Z,32.93
2023-04-14T20:19:09.679Z,32.83
2023-04-14T20:21:13.918Z,33.25
2023-04-14T20:23:17.284Z,33.41
2023-04-14T20:25:20.073Z,33.59
2023-04-14T20:27:23.947Z,33.48
2023-04-14T20:29:26.823Z,33.32
2023-04-14T20:31:29.588Z,33.56
2023-04-14T20:33:32.649Z,33.23
2023-04-14T20:35:36.851Z,33.20
2023-04-14T20:37:39.592Z,33.29
2023-04-14T20:39:42.767Z,33.28
2023-04-14T20:41:46.641Z,33.21
2023-04-14T20:43:49.454Z,33.49
2023-04-14T20:45:53.349Z,33.67
2023-04-14T20:47:56.672Z,33.33
2023-04-14T20:49:59.486Z,33.42
2023-04-14T20:52:02.366Z,33.42
2023-04-14T20:54:05.195Z,33.35
2023-04-14T20:56:07.853Z,33.63
2023-04-14T20:58:10.955Z,33.15
2023-04-14T21:00:19.090Z,33.64
2023-04-14T21:02:22.660Z,33.62
2023-04-14T21:04:26.176Z,33.32
2023-04-14T21:06:32.414Z,33.60
2023-04-14T21:08:35.635Z,33.30
2023-04-14T21:11:14.465Z,33.82
2023-04-14T21:15:39.876Z,33.32
2023-04-14T21:15:50.387Z,33.62
2023-04-14T21:17:50.644Z,33.30
2023-04-14T21:19:53.895Z,33.81
2023-04-14T21:21:56.587Z,33.74
2023-04-14T21:23:59.487Z,33.65
2023-04-14T21:26:02.135Z,33.71
2023-04-14T21:28:05.062Z,34.16
2023-04-14T21:30:12.211Z,33.65
2023-04-14T21:32:17.916Z,33.92
2023-04-14T21:34:20.838Z,33.49
2023-04-14T21:36:23.625Z,33.79
2023-04-14T21:38:26.508Z,33.81
2023-04-14T21:40:29.786Z,33.97
2023-04-14T21:42:32.854Z,33.96
2023-04-14T21:44:35.824Z,34.24
2023-04-14T21:46:38.527Z,33.73
2023-04-14T21:48:41.310Z,34.74
2023-04-14T21:50:44.015Z,34.32
2023-04-14T21:52:47.345Z,34.43
2023-04-14T21:54:50.963Z,33.88
2023-04-14T21:56:53.967Z,34.69
2023-04-14T21:58:56.612Z,34.49
2023-04-14T22:01:00.514Z,34.62
2023-04-14T22:03:03.411Z,34.41
2023-04-14T22:05:07.323Z,34.39
2023-04-14T22:07:10.074Z,34.69
2023-04-14T22:09:12.890Z,34.66
2023-04-14T22:11:16.333Z,34.76
2023-04-14T22:13:19.148Z,34.50
2023-04-14T22:15:22.561Z,34.59
2023-04-14T22:17:25.911Z,34.91
2023-04-14T22:19:29.004Z,34.83
2023-04-14T22:21:31.818Z,34.74
2023-04-14T22:23:34.509Z,35.08
2023-04-14T22:25:38.199Z,35.06
2023-04-14T22:27:40.956Z,34.63
2023-04-14T22:29:43.654Z,35.25
2023-04-14T22:31:46.798Z,34.91
2023-04-14T22:33:49.552Z,35.26
2023-04-14T22:35:53.824Z,35.19
2023-04-14T22:37:56.539Z,35.41
2023-04-14T22:40:02.217Z,34.84
2023-04-14T22:42:06.367Z,35.17
2023-04-14T22:44:09.011Z,35.87
2023-04-14T22:46:12.008Z,35.77
2023-04-14T22:48:14.995Z,35.69
2023-04-14T22:50:17.892Z,35.75
2023-04-14T22:52:21.118Z,35.85
2023-04-14T22:54:23.761Z,36.03
2023-04-14T22:56:27.671Z,35.83
2023-04-14T22:58:39.229Z,36.07
2023-04-14T23:00:42.329Z,36.30
2023-04-14T23:02:45.654Z,35.71
2023-04-14T23:04:48.576Z,35.97
2023-04-14T23:06:51.344Z,35.70
2023-04-14T23:08:53.977Z,36.00
2023-04-14T23:10:57.183Z,35.97
2023-04-14T23:13:00.045Z,36.56
2023-04-14T23:15:04.431Z,36.59
2023-04-14T23:17:07.165Z,36.89
2023-04-14T23:19:10.943Z,36.67
2023-04-14T23:21:13.643Z,36.28
2023-04-14T23:23:16.338Z,36.68
2023-04-14T23:25:19.015Z,36.96
2023-04-14T23:27:22.125Z,36.79
2023-04-14T23:29:24.760Z,36.53
2023-04-14T23:31:30.396Z,36.48
2023-04-14T23:33:33.072Z,36.97
2023-04-14T23:35:36.646Z,36.83
2023-04-14T23:37:39.379Z,36.96
2023-04-14T23:39:42.231Z,36.78
2023-04-14T23:41:44.913Z,36.52
2023-04-14T23:43:49.716Z,36.59
2023-04-14T23:45:52.759Z,36.83
2023-04-14T23:47:55.612Z,36.53
2023-04-14T23:49:58.381Z,37.23
2023-04-14T23:52:01.217Z,36.90
2023-04-14T23:54:03.969Z,37.67
2023-04-14T23:56:07.213Z,37.47
2023-04-14T23:58:09.876Z,37.57
